sensor_id;sensor_type;location;lat;lon;timestamp;temperature;humidity
33207;DHT22;19565;46.602;11.534;2023-07-28T00:02:11;19.80;99.90
33207;DHT22;19565;46.602;11.534;2023-07-28T00:08:03;19.80;99.90
33207;DHT22;19565;46.602;11.534;2023-07-28T00:10:31;19.80;99.90
33207;DHT22;19565;46.602;11.534;2023-07-28T00:13:01;19.80;99.90
33207;DHT22;19565;46.602;11.534;2023-07-28T00:15:29;19.80;99.90
33207;DHT22;19565;46.602;11.534;2023-07-28T00:17:57;19.80;99.90
33207;DHT22;19565;46.602;11.534;2023-07-28T00:20:26;19.80;99.90
33207;DHT22;19565;46.602;11.534;2023-07-28T00:23:08;19.80;99.90
33207;DHT22;19565;46.602;11.534;2023-07-28T00:25:54;19.80;99.90
33207;DHT22;19565;46.602;11.534;2023-07-28T00:28:23;19.80;99.90
33207;DHT22;19565;46.602;11.534;2023-07-28T00:30:51;19.80;99.90
33207;DHT22;19565;46.602;11.534;2023-07-28T00:33:19;19.80;99.90
33207;DHT22;19565;46.602;11.534;2023-07-28T00:35:48;19.80;99.90
33207;DHT22;19565;46.602;11.534;2023-07-28T00:38:17;19.80;99.90
33207;DHT22;19565;46.602;11.534;2023-07-28T00:40:45;19.80;99.90
33207;DHT22;19565;46.602;11.534;2023-07-28T00:43:13;19.80;99.90
33207;DHT22;19565;46.602;11.534;2023-07-28T00:45:43;19.70;99.90
33207;DHT22;19565;46.602;11.534;2023-07-28T00:48:14;19.70;99.90
33207;DHT22;19565;46.602;11.534;2023-07-28T00:50:44;19.70;99.90
33207;DHT22;19565;46.602;11.534;2023-07-28T00:53:13;19.70;99.90
33207;DHT22;19565;46.602;11.534;2023-07-28T00:55:41;19.60;99.90
33207;DHT22;19565;46.602;11.534;2023-07-28T00:58:09;19.70;99.90
33207;DHT22;19565;46.602;11.534;2023-07-28T01:00:38;19.60;99.90
33207;DHT22;19565;46.602;11.534;2023-07-28T01:03:07;19.60;99.90
33207;DHT22;19565;46.602;11.534;2023-07-28T01:05:44;19.60;99.90
33207;DHT22;19565;46.602;11.534;2023-07-28T01:08:19;19.60;99.90
33207;DHT22;19565;46.602;11.534;2023-07-28T01:10:48;19.60;99.90
33207;DHT22;19565;46.602;11.534;2023-07-28T01:13:17;19.60;99.90
33207;DHT22;19565;46.602;11.534;2023-07-28T01:15:45;19.60;99.90
33207;DHT22;19565;46.602;11.534;2023-07-28T01:18:14;19.60;99.90
33207;DHT22;19565;46.602;11.534;2023-07-28T01:20:43;19.50;99.90
33207;DHT22;19565;46.602;11.534;2023-07-28T01:23:19;19.50;99.90
33207;DHT22;19565;46.602;11.534;2023-07-28T01:25:57;19.60;99.90
33207;DHT22;19565;46.602;11.534;2023-07-28T01:28:29;19.50;99.90
33207;DHT22;19565;46.602;11.534;2023-07-28T01:30:57;19.50;99.90
33207;DHT22;19565;46.602;11.534;2023-07-28T01:33:25;19.50;99.90
33207;DHT22;19565;46.602;11.534;2023-07-28T01:35:53;19.50;99.90
33207;DHT22;19565;46.602;11.534;2023-07-28T01:38:21;19.50;99.90
33207;DHT22;19565;46.602;11.534;2023-07-28T01:40:49;19.40;99.90
33207;DHT22;19565;46.602;11.534;2023-07-28T01:43:17;19.40;99.90
33207;DHT22;19565;46.602;11.534;2023-07-28T01:45:46;19.30;99.90
33207;DHT22;19565;46.602;11.534;2023-07-28T01:48:15;19.30;99.90
33207;DHT22;19565;46.602;11.534;2023-07-28T01:50:43;19.20;99.90
33207;DHT22;19565;46.602;11.534;2023-07-28T01:53:11;19.20;99.90
33207;DHT22;19565;46.602;11.534;2023-07-28T01:55:39;19.20;99.90
33207;DHT22;19565;46.602;11.534;2023-07-28T01:58:07;19.20;99.90
33207;DHT22;19565;46.602;11.534;2023-07-28T02:00:36;19.10;99.90
33207;DHT22;19565;46.602;11.534;2023-07-28T02:03:05;19.10;99.90
33207;DHT22;19565;46.602;11.534;2023-07-28T02:05:34;19.00;99.90
33207;DHT22;19565;46.602;11.534;2023-07-28T02:08:02;19.00;99.90
33207;DHT22;19565;46.602;11.534;2023-07-28T02:10:30;19.00;99.90
33207;DHT22;19565;46.602;11.534;2023-07-28T02:12:58;19.00;99.90
33207;DHT22;19565;46.602;11.534;2023-07-28T02:15:26;19.00;99.90
33207;DHT22;19565;46.602;11.534;2023-07-28T02:17:54;19.00;99.90
33207;DHT22;19565;46.602;11.534;2023-07-28T02:20:23;18.90;99.90
33207;DHT22;19565;46.602;11.534;2023-07-28T02:22:51;18.90;99.90
33207;DHT22;19565;46.602;11.534;2023-07-28T02:25:20;18.80;99.90
33207;DHT22;19565;46.602;11.534;2023-07-28T02:27:48;18.80;99.90
33207;DHT22;19565;46.602;11.534;2023-07-28T02:30:16;18.80;99.90
33207;DHT22;19565;46.602;11.534;2023-07-28T02:32:44;18.80;99.90
33207;DHT22;19565;46.602;11.534;2023-07-28T02:35:12;18.80;99.90
33207;DHT22;19565;46.602;11.534;2023-07-28T02:37:42;18.70;99.90
33207;DHT22;19565;46.602;11.534;2023-07-28T02:40:10;18.70;99.90
33207;DHT22;19565;46.602;11.534;2023-07-28T02:42:39;18.70;99.90
33207;DHT22;19565;46.602;11.534;2023-07-28T02:45:08;18.60;99.90
33207;DHT22;19565;46.602;11.534;2023-07-28T02:47:37;18.70;99.90
33207;DHT22;19565;46.602;11.534;2023-07-28T02:50:06;18.70;99.90
33207;DHT22;19565;46.602;11.534;2023-07-28T02:52:34;18.70;99.90
33207;DHT22;19565;46.602;11.534;2023-07-28T02:55:04;18.60;99.90
33207;DHT22;19565;46.602;11.534;2023-07-28T02:57:32;18.60;99.90
33207;DHT22;19565;46.602;11.534;2023-07-28T03:00:00;18.60;99.90
33207;DHT22;19565;46.602;11.534;2023-07-28T03:02:28;18.60;99.90
33207;DHT22;19565;46.602;11.534;2023-07-28T03:04:56;18.60;99.90
33207;DHT22;19565;46.602;11.534;2023-07-28T03:07:25;18.60;99.90
33207;DHT22;19565;46.602;11.534;2023-07-28T03:09:53;18.60;99.90
33207;DHT22;19565;46.602;11.534;2023-07-28T03:12:22;18.60;99.90
33207;DHT22;19565;46.602;11.534;2023-07-28T03:14:50;18.60;99.90
33207;DHT22;19565;46.602;11.534;2023-07-28T03:17:18;18.60;99.90
33207;DHT22;19565;46.602;11.534;2023-07-28T03:19:46;18.60;99.90
33207;DHT22;19565;46.602;11.534;2023-07-28T03:22:14;18.60;99.90
33207;DHT22;19565;46.602;11.534;2023-07-28T03:24:42;18.60;99.90
33207;DHT22;19565;46.602;11.534;2023-07-28T03:27:13;18.60;99.90
33207;DHT22;19565;46.602;11.534;2023-07-28T03:29:43;18.60;99.90
33207;DHT22;19565;46.602;11.534;2023-07-28T03:32:11;18.60;99.90
33207;DHT22;19565;46.602;11.534;2023-07-28T03:34:39;18.50;99.90
33207;DHT22;19565;46.602;11.534;2023-07-28T03:37:07;18.50;99.90
33207;DHT22;19565;46.602;11.534;2023-07-28T03:39:35;18.60;99.90
33207;DHT22;19565;46.602;11.534;2023-07-28T03:42:04;18.50;99.90
33207;DHT22;19565;46.602;11.534;2023-07-28T03:44:32;18.50;99.90
33207;DHT22;19565;46.602;11.534;2023-07-28T03:47:01;18.50;99.90
33207;DHT22;19565;46.602;11.534;2023-07-28T03:49:30;18.50;99.90
33207;DHT22;19565;46.602;11.534;2023-07-28T03:51:58;18.50;99.90
33207;DHT22;19565;46.602;11.534;2023-07-28T03:54:26;18.50;99.90
33207;DHT22;19565;46.602;11.534;2023-07-28T03:56:54;18.50;99.90
33207;DHT22;19565;46.602;11.534;2023-07-28T03:59:22;18.50;99.90
33207;DHT22;19565;46.602;11.534;2023-07-28T04:01:50;18.50;99.90
33207;DHT22;19565;46.602;11.534;2023-07-28T04:04:20;18.50;99.90
33207;DHT22;19565;46.602;11.534;2023-07-28T04:06:49;18.50;99.90
33207;DHT22;19565;46.602;11.534;2023-07-28T04:09:17;18.50;99.90
33207;DHT22;19565;46.602;11.534;2023-07-28T04:11:45;18.50;99.90
33207;DHT22;19565;46.602;11.534;2023-07-28T04:14:14;18.50;99.90
33207;DHT22;19565;46.602;11.534;2023-07-28T04:16:42;18.50;99.90
33207;DHT22;19565;46.602;11.534;2023-07-28T04:19:10;18.50;99.90
33207;DHT22;19565;46.602;11.534;2023-07-28T04:21:39;18.50;99.90
33207;DHT22;19565;46.602;11.534;2023-07-28T04:24:08;18.40;99.90
33207;DHT22;19565;46.602;11.534;2023-07-28T04:26:36;18.50;99.90
33207;DHT22;19565;46.602;11.534;2023-07-28T04:29:05;18.50;99.90
33207;DHT22;19565;46.602;11.534;2023-07-28T04:31:33;18.40;99.90
33207;DHT22;19565;46.602;11.534;2023-07-28T04:34:02;18.40;99.90
33207;DHT22;19565;46.602;11.534;2023-07-28T04:36:30;18.40;99.90
33207;DHT22;19565;46.602;11.534;2023-07-28T04:39:00;18.40;99.90
33207;DHT22;19565;46.602;11.534;2023-07-28T04:41:29;18.40;99.90
33207;DHT22;19565;46.602;11.534;2023-07-28T04:43:57;18.40;99.90
33207;DHT22;19565;46.602;11.534;2023-07-28T04:46:25;18.40;99.90
33207;DHT22;19565;46.602;11.534;2023-07-28T04:48:54;18.50;99.90
33207;DHT22;19565;46.602;11.534;2023-07-28T04:51:22;18.50;99.90
33207;DHT22;19565;46.602;11.534;2023-07-28T04:53:50;18.50;99.90
33207;DHT22;19565;46.602;11.534;2023-07-28T04:56:20;18.50;99.90
33207;DHT22;19565;46.602;11.534;2023-07-28T04:58:48;18.50;99.90
33207;DHT22;19565;46.602;11.534;2023-07-28T05:01:16;18.50;99.90
33207;DHT22;19565;46.602;11.534;2023-07-28T05:03:44;18.50;99.90
33207;DHT22;19565;46.602;11.534;2023-07-28T05:06:12;18.50;99.90
33207;DHT22;19565;46.602;11.534;2023-07-28T05:08:41;18.50;99.90
33207;DHT22;19565;46.602;11.534;2023-07-28T05:11:09;18.50;99.90
33207;DHT22;19565;46.602;11.534;2023-07-28T05:13:38;18.50;99.90
33207;DHT22;19565;46.602;11.534;2023-07-28T05:16:06;18.50;99.90
33207;DHT22;19565;46.602;11.534;2023-07-28T05:18:34;18.50;99.90
33207;DHT22;19565;46.602;11.534;2023-07-28T05:21:03;18.50;99.90
33207;DHT22;19565;46.602;11.534;2023-07-28T05:23:31;18.50;99.90
33207;DHT22;19565;46.602;11.534;2023-07-28T05:25:59;18.50;99.90
33207;DHT22;19565;46.602;11.534;2023-07-28T05:28:27;18.50;99.90
33207;DHT22;19565;46.602;11.534;2023-07-28T05:31:04;18.50;99.90
33207;DHT22;19565;46.602;11.534;2023-07-28T05:33:32;18.50;99.90
33207;DHT22;19565;46.602;11.534;2023-07-28T05:36:02;18.50;99.90
33207;DHT22;19565;46.602;11.534;2023-07-28T05:38:32;18.50;99.90
33207;DHT22;19565;46.602;11.534;2023-07-28T05:41:01;18.50;99.90
33207;DHT22;19565;46.602;11.534;2023-07-28T05:43:30;18.40;99.90
33207;DHT22;19565;46.602;11.534;2023-07-28T05:45:59;18.50;99.90
33207;DHT22;19565;46.602;11.534;2023-07-28T05:48:29;18.50;99.90
33207;DHT22;19565;46.602;11.534;2023-07-28T05:50:57;18.50;99.90
33207;DHT22;19565;46.602;11.534;2023-07-28T05:53:25;18.50;99.90
33207;DHT22;19565;46.602;11.534;2023-07-28T05:55:53;18.50;99.90
33207;DHT22;19565;46.602;11.534;2023-07-28T05:58:21;18.60;99.90
33207;DHT22;19565;46.602;11.534;2023-07-28T06:00:49;18.50;99.90
33207;DHT22;19565;46.602;11.534;2023-07-28T06:03:17;18.50;99.90
33207;DHT22;19565;46.602;11.534;2023-07-28T06:05:47;18.50;99.90
33207;DHT22;19565;46.602;11.534;2023-07-28T06:08:15;18.50;99.90
33207;DHT22;19565;46.602;11.534;2023-07-28T06:10:43;18.40;99.90
33207;DHT22;19565;46.602;11.534;2023-07-28T06:13:11;18.30;99.90
33207;DHT22;19565;46.602;11.534;2023-07-28T06:15:39;18.30;99.90
33207;DHT22;19565;46.602;11.534;2023-07-28T06:18:07;18.40;99.90
33207;DHT22;19565;46.602;11.534;2023-07-28T06:20:35;18.50;99.90
33207;DHT22;19565;46.602;11.534;2023-07-28T06:23:05;18.50;99.90
33207;DHT22;19565;46.602;11.534;2023-07-28T06:25:33;18.60;99.90
33207;DHT22;19565;46.602;11.534;2023-07-28T06:28:01;18.60;99.90
33207;DHT22;19565;46.602;11.534;2023-07-28T06:30:29;18.70;99.90
33207;DHT22;19565;46.602;11.534;2023-07-28T06:32:58;18.70;99.90
33207;DHT22;19565;46.602;11.534;2023-07-28T06:35:26;18.80;99.90
33207;DHT22;19565;46.602;11.534;2023-07-28T06:37:54;18.80;99.90
33207;DHT22;19565;46.602;11.534;2023-07-28T06:40:24;18.90;99.90
33207;DHT22;19565;46.602;11.534;2023-07-28T06:42:52;18.90;99.90
33207;DHT22;19565;46.602;11.534;2023-07-28T06:45:20;18.90;99.90
33207;DHT22;19565;46.602;11.534;2023-07-28T06:47:48;19.00;99.90
33207;DHT22;19565;46.602;11.534;2023-07-28T06:50:18;19.00;99.90
33207;DHT22;19565;46.602;11.534;2023-07-28T06:52:46;19.10;99.90
33207;DHT22;19565;46.602;11.534;2023-07-28T06:55:16;19.10;99.90
33207;DHT22;19565;46.602;11.534;2023-07-28T06:57:46;19.10;99.90
33207;DHT22;19565;46.602;11.534;2023-07-28T07:00:15;19.20;99.90
33207;DHT22;19565;46.602;11.534;2023-07-28T07:02:44;19.30;99.90
33207;DHT22;19565;46.602;11.534;2023-07-28T07:05:12;19.30;99.90
33207;DHT22;19565;46.602;11.534;2023-07-28T07:07:41;19.30;99.90
33207;DHT22;19565;46.602;11.534;2023-07-28T07:10:09;19.40;99.90
33207;DHT22;19565;46.602;11.534;2023-07-28T07:12:37;19.40;99.90
33207;DHT22;19565;46.602;11.534;2023-07-28T07:15:08;19.50;99.90
33207;DHT22;19565;46.602;11.534;2023-07-28T07:17:38;19.60;99.90
33207;DHT22;19565;46.602;11.534;2023-07-28T07:20:08;19.70;99.90
33207;DHT22;19565;46.602;11.534;2023-07-28T07:22:37;19.70;99.90
33207;DHT22;19565;46.602;11.534;2023-07-28T07:25:05;19.80;99.90
33207;DHT22;19565;46.602;11.534;2023-07-28T07:27:34;19.80;99.90
33207;DHT22;19565;46.602;11.534;2023-07-28T07:30:02;19.80;99.90
33207;DHT22;19565;46.602;11.534;2023-07-28T07:32:32;19.80;99.90
33207;DHT22;19565;46.602;11.534;2023-07-28T07:35:00;19.80;99.90
33207;DHT22;19565;46.602;11.534;2023-07-28T07:37:29;19.90;99.90
33207;DHT22;19565;46.602;11.534;2023-07-28T07:39:58;20.00;99.90
33207;DHT22;19565;46.602;11.534;2023-07-28T07:42:30;20.00;99.90
33207;DHT22;19565;46.602;11.534;2023-07-28T07:45:08;20.10;99.90
33207;DHT22;19565;46.602;11.534;2023-07-28T07:47:38;20.20;99.90
33207;DHT22;19565;46.602;11.534;2023-07-28T07:50:07;20.30;99.90
33207;DHT22;19565;46.602;11.534;2023-07-28T07:52:37;20.30;99.90
33207;DHT22;19565;46.602;11.534;2023-07-28T07:55:09;20.30;99.90
33207;DHT22;19565;46.602;11.534;2023-07-28T07:57:38;20.30;99.90
33207;DHT22;19565;46.602;11.534;2023-07-28T08:00:07;20.40;99.90
33207;DHT22;19565;46.602;11.534;2023-07-28T08:02:35;20.50;99.90
33207;DHT22;19565;46.602;11.534;2023-07-28T08:05:05;20.50;99.90
33207;DHT22;19565;46.602;11.534;2023-07-28T08:07:34;20.60;99.90
33207;DHT22;19565;46.602;11.534;2023-07-28T08:10:03;20.60;99.90
33207;DHT22;19565;46.602;11.534;2023-07-28T08:12:31;20.70;99.90
33207;DHT22;19565;46.602;11.534;2023-07-28T08:14:59;20.70;99.90
33207;DHT22;19565;46.602;11.534;2023-07-28T08:17:27;20.70;99.90
33207;DHT22;19565;46.602;11.534;2023-07-28T08:19:55;20.80;99.90
33207;DHT22;19565;46.602;11.534;2023-07-28T08:22:24;20.80;99.90
33207;DHT22;19565;46.602;11.534;2023-07-28T08:24:53;20.90;99.90
33207;DHT22;19565;46.602;11.534;2023-07-28T08:27:21;20.90;99.90
33207;DHT22;19565;46.602;11.534;2023-07-28T08:29:50;20.90;99.90
33207;DHT22;19565;46.602;11.534;2023-07-28T08:32:18;20.90;99.90
33207;DHT22;19565;46.602;11.534;2023-07-28T08:34:46;21.00;99.90
33207;DHT22;19565;46.602;11.534;2023-07-28T08:37:14;21.00;99.90
33207;DHT22;19565;46.602;11.534;2023-07-28T08:39:44;21.10;99.90
33207;DHT22;19565;46.602;11.534;2023-07-28T08:42:12;21.10;99.60
33207;DHT22;19565;46.602;11.534;2023-07-28T08:44:40;21.10;98.90
33207;DHT22;19565;46.602;11.534;2023-07-28T08:47:08;21.10;98.80
33207;DHT22;19565;46.602;11.534;2023-07-28T08:49:36;21.20;99.00
33207;DHT22;19565;46.602;11.534;2023-07-28T08:52:06;21.30;99.10
33207;DHT22;19565;46.602;11.534;2023-07-28T08:54:34;21.30;98.90
33207;DHT22;19565;46.602;11.534;2023-07-28T08:57:04;21.30;98.60
33207;DHT22;19565;46.602;11.534;2023-07-28T08:59:32;21.40;98.60
33207;DHT22;19565;46.602;11.534;2023-07-28T09:02:02;21.40;98.60
33207;DHT22;19565;46.602;11.534;2023-07-28T09:04:31;21.50;98.30
33207;DHT22;19565;46.602;11.534;2023-07-28T09:06:59;21.60;98.60
33207;DHT22;19565;46.602;11.534;2023-07-28T09:09:31;21.70;98.40
33207;DHT22;19565;46.602;11.534;2023-07-28T09:12:00;21.70;97.90
33207;DHT22;19565;46.602;11.534;2023-07-28T09:14:30;21.80;97.70
33207;DHT22;19565;46.602;11.534;2023-07-28T09:17:07;21.80;97.30
33207;DHT22;19565;46.602;11.534;2023-07-28T09:19:49;21.80;97.10
33207;DHT22;19565;46.602;11.534;2023-07-28T09:22:17;21.90;97.10
33207;DHT22;19565;46.602;11.534;2023-07-28T09:24:46;21.90;96.70
33207;DHT22;19565;46.602;11.534;2023-07-28T09:27:22;21.90;96.50
33207;DHT22;19565;46.602;11.534;2023-07-28T09:29:53;22.00;96.80
33207;DHT22;19565;46.602;11.534;2023-07-28T09:32:27;22.00;96.50
33207;DHT22;19565;46.602;11.534;2023-07-28T09:35:08;22.10;96.50
33207;DHT22;19565;46.602;11.534;2023-07-28T09:37:39;22.10;96.60
33207;DHT22;19565;46.602;11.534;2023-07-28T09:40:09;22.10;96.00
33207;DHT22;19565;46.602;11.534;2023-07-28T09:42:41;22.10;96.10
33207;DHT22;19565;46.602;11.534;2023-07-28T09:45:11;22.20;96.00
33207;DHT22;19565;46.602;11.534;2023-07-28T09:48:02;22.20;95.80
33207;DHT22;19565;46.602;11.534;2023-07-28T09:50:37;22.20;95.50
33207;DHT22;19565;46.602;11.534;2023-07-28T09:53:08;22.20;96.00
33207;DHT22;19565;46.602;11.534;2023-07-28T09:55:38;22.20;95.50
33207;DHT22;19565;46.602;11.534;2023-07-28T09:58:09;22.30;95.10
33207;DHT22;19565;46.602;11.534;2023-07-28T10:00:40;22.30;94.80
33207;DHT22;19565;46.602;11.534;2023-07-28T10:03:09;22.40;95.30
33207;DHT22;19565;46.602;11.534;2023-07-28T10:05:38;22.40;95.10
33207;DHT22;19565;46.602;11.534;2023-07-28T10:08:07;22.40;94.70
33207;DHT22;19565;46.602;11.534;2023-07-28T10:10:35;22.50;95.20
33207;DHT22;19565;46.602;11.534;2023-07-28T10:13:03;22.50;94.70
33207;DHT22;19565;46.602;11.534;2023-07-28T10:15:32;22.50;94.30
33207;DHT22;19565;46.602;11.534;2023-07-28T10:18:01;22.60;93.70
33207;DHT22;19565;46.602;11.534;2023-07-28T10:20:33;22.60;93.70
33207;DHT22;19565;46.602;11.534;2023-07-28T10:23:03;22.70;94.10
33207;DHT22;19565;46.602;11.534;2023-07-28T10:25:33;22.70;94.20
33207;DHT22;19565;46.602;11.534;2023-07-28T10:28:02;22.80;94.00
33207;DHT22;19565;46.602;11.534;2023-07-28T10:30:36;22.80;93.90
33207;DHT22;19565;46.602;11.534;2023-07-28T10:33:06;22.90;93.80
33207;DHT22;19565;46.602;11.534;2023-07-28T10:35:47;22.90;93.70
33207;DHT22;19565;46.602;11.534;2023-07-28T10:38:32;23.00;93.20
33207;DHT22;19565;46.602;11.534;2023-07-28T10:41:08;23.00;93.40
33207;DHT22;19565;46.602;11.534;2023-07-28T10:43:37;23.00;93.60
33207;DHT22;19565;46.602;11.534;2023-07-28T10:46:08;23.10;93.50
33207;DHT22;19565;46.602;11.534;2023-07-28T10:48:41;23.10;93.10
33207;DHT22;19565;46.602;11.534;2023-07-28T10:51:10;23.20;93.20
33207;DHT22;19565;46.602;11.534;2023-07-28T10:53:39;23.30;93.30
33207;DHT22;19565;46.602;11.534;2023-07-28T10:56:08;23.30;93.10
33207;DHT22;19565;46.602;11.534;2023-07-28T10:58:37;23.30;93.00
33207;DHT22;19565;46.602;11.534;2023-07-28T11:01:06;23.40;92.60
33207;DHT22;19565;46.602;11.534;2023-07-28T11:03:34;23.50;92.90
33207;DHT22;19565;46.602;11.534;2023-07-28T11:06:04;23.50;92.70
33207;DHT22;19565;46.602;11.534;2023-07-28T11:08:33;23.50;93.10
33207;DHT22;19565;46.602;11.534;2023-07-28T11:11:04;23.50;92.50
33207;DHT22;19565;46.602;11.534;2023-07-28T11:13:32;23.60;92.70
33207;DHT22;19565;46.602;11.534;2023-07-28T11:16:07;23.70;92.30
33207;DHT22;19565;46.602;11.534;2023-07-28T11:18:37;23.70;92.50
33207;DHT22;19565;46.602;11.534;2023-07-28T11:21:07;23.70;92.20
33207;DHT22;19565;46.602;11.534;2023-07-28T11:23:35;23.80;92.10
33207;DHT22;19565;46.602;11.534;2023-07-28T11:26:05;23.80;92.50
33207;DHT22;19565;46.602;11.534;2023-07-28T11:28:34;23.90;92.00
33207;DHT22;19565;46.602;11.534;2023-07-28T11:31:02;23.90;92.10
33207;DHT22;19565;46.602;11.534;2023-07-28T11:33:31;24.00;91.50
33207;DHT22;19565;46.602;11.534;2023-07-28T11:35:59;24.10;91.80
33207;DHT22;19565;46.602;11.534;2023-07-28T11:38:28;24.10;92.50
33207;DHT22;19565;46.602;11.534;2023-07-28T11:40:58;24.20;92.60
33207;DHT22;19565;46.602;11.534;2023-07-28T11:43:26;24.20;91.40
33207;DHT22;19565;46.602;11.534;2023-07-28T11:45:54;24.20;91.50
33207;DHT22;19565;46.602;11.534;2023-07-28T11:48:22;24.20;90.80
33207;DHT22;19565;46.602;11.534;2023-07-28T11:50:50;24.20;91.40
33207;DHT22;19565;46.602;11.534;2023-07-28T11:53:20;24.20;91.60
33207;DHT22;19565;46.602;11.534;2023-07-28T11:55:50;24.30;90.80
33207;DHT22;19565;46.602;11.534;2023-07-28T11:58:18;24.30;90.80
33207;DHT22;19565;46.602;11.534;2023-07-28T12:00:50;24.30;91.10
33207;DHT22;19565;46.602;11.534;2023-07-28T12:03:18;24.40;90.90
33207;DHT22;19565;46.602;11.534;2023-07-28T12:06:03;24.40;90.60
33207;DHT22;19565;46.602;11.534;2023-07-28T12:08:35;24.50;90.40
33207;DHT22;19565;46.602;11.534;2023-07-28T12:11:05;24.40;90.60
33207;DHT22;19565;46.602;11.534;2023-07-28T12:13:47;24.50;90.30
33207;DHT22;19565;46.602;11.534;2023-07-28T12:16:34;24.60;91.10
33207;DHT22;19565;46.602;11.534;2023-07-28T12:19:05;24.60;90.90
33207;DHT22;19565;46.602;11.534;2023-07-28T12:21:34;24.70;90.40
33207;DHT22;19565;46.602;11.534;2023-07-28T12:24:03;24.70;90.50
33207;DHT22;19565;46.602;11.534;2023-07-28T12:26:35;24.70;90.60
33207;DHT22;19565;46.602;11.534;2023-07-28T12:29:06;24.80;90.90
33207;DHT22;19565;46.602;11.534;2023-07-28T12:31:37;24.80;90.90
33207;DHT22;19565;46.602;11.534;2023-07-28T12:34:08;24.90;90.40
33207;DHT22;19565;46.602;11.534;2023-07-28T12:36:37;24.90;90.20
33207;DHT22;19565;46.602;11.534;2023-07-28T12:39:08;24.90;89.60
33207;DHT22;19565;46.602;11.534;2023-07-28T12:41:40;25.00;90.00
33207;DHT22;19565;46.602;11.534;2023-07-28T12:44:12;25.00;90.00
33207;DHT22;19565;46.602;11.534;2023-07-28T12:46:43;25.10;90.00
33207;DHT22;19565;46.602;11.534;2023-07-28T12:49:11;25.20;88.10
33207;DHT22;19565;46.602;11.534;2023-07-28T12:51:42;25.30;88.80
33207;DHT22;19565;46.602;11.534;2023-07-28T12:54:24;25.30;87.50
33207;DHT22;19565;46.602;11.534;2023-07-28T12:56:54;25.30;87.60
33207;DHT22;19565;46.602;11.534;2023-07-28T12:59:25;25.50;88.40
33207;DHT22;19565;46.602;11.534;2023-07-28T13:01:53;25.50;88.00
33207;DHT22;19565;46.602;11.534;2023-07-28T13:04:21;25.50;88.20
33207;DHT22;19565;46.602;11.534;2023-07-28T13:06:50;25.50;86.60
33207;DHT22;19565;46.602;11.534;2023-07-28T13:09:18;25.50;87.00
33207;DHT22;19565;46.602;11.534;2023-07-28T13:11:49;25.50;87.50
33207;DHT22;19565;46.602;11.534;2023-07-28T13:14:21;25.50;88.00
33207;DHT22;19565;46.602;11.534;2023-07-28T13:16:49;25.60;87.50
33207;DHT22;19565;46.602;11.534;2023-07-28T13:19:17;25.70;87.20
33207;DHT22;19565;46.602;11.534;2023-07-28T13:21:45;25.80;87.00
33207;DHT22;19565;46.602;11.534;2023-07-28T13:24:13;25.80;85.20
33207;DHT22;19565;46.602;11.534;2023-07-28T13:26:41;25.80;86.10
33207;DHT22;19565;46.602;11.534;2023-07-28T13:29:09;25.80;85.40
33207;DHT22;19565;46.602;11.534;2023-07-28T13:31:39;25.80;85.60
33207;DHT22;19565;46.602;11.534;2023-07-28T13:34:07;25.80;85.90
33207;DHT22;19565;46.602;11.534;2023-07-28T13:36:35;25.80;86.70
33207;DHT22;19565;46.602;11.534;2023-07-28T13:39:03;25.80;86.70
33207;DHT22;19565;46.602;11.534;2023-07-28T13:41:32;25.80;86.60
33207;DHT22;19565;46.602;11.534;2023-07-28T13:44:01;25.80;88.20
33207;DHT22;19565;46.602;11.534;2023-07-28T13:46:29;25.80;88.20
33207;DHT22;19565;46.602;11.534;2023-07-28T13:48:59;25.80;86.70
33207;DHT22;19565;46.602;11.534;2023-07-28T13:51:34;25.90;87.10
33207;DHT22;19565;46.602;11.534;2023-07-28T13:54:05;25.90;84.90
33207;DHT22;19565;46.602;11.534;2023-07-28T13:56:36;26.00;84.70
33207;DHT22;19565;46.602;11.534;2023-07-28T13:59:04;26.10;85.60
33207;DHT22;19565;46.602;11.534;2023-07-28T14:01:32;26.20;84.00
33207;DHT22;19565;46.602;11.534;2023-07-28T14:04:02;26.30;83.40
33207;DHT22;19565;46.602;11.534;2023-07-28T14:06:31;26.30;82.80
33207;DHT22;19565;46.602;11.534;2023-07-28T14:08:59;26.20;81.90
33207;DHT22;19565;46.602;11.534;2023-07-28T14:11:27;26.20;82.50
33207;DHT22;19565;46.602;11.534;2023-07-28T14:13:55;26.20;83.20
33207;DHT22;19565;46.602;11.534;2023-07-28T14:16:24;26.20;83.20
33207;DHT22;19565;46.602;11.534;2023-07-28T14:18:52;26.30;84.90
33207;DHT22;19565;46.602;11.534;2023-07-28T14:21:21;26.30;84.80
33207;DHT22;19565;46.602;11.534;2023-07-28T14:23:50;26.30;85.20
33207;DHT22;19565;46.602;11.534;2023-07-28T14:26:18;26.30;85.70
33207;DHT22;19565;46.602;11.534;2023-07-28T14:28:46;26.30;84.80
33207;DHT22;19565;46.602;11.534;2023-07-28T14:31:14;26.30;86.00
33207;DHT22;19565;46.602;11.534;2023-07-28T14:33:42;26.40;86.10
33207;DHT22;19565;46.602;11.534;2023-07-28T14:36:10;26.40;84.50
33207;DHT22;19565;46.602;11.534;2023-07-28T14:38:39;26.40;84.50
33207;DHT22;19565;46.602;11.534;2023-07-28T14:41:07;26.30;84.60
33207;DHT22;19565;46.602;11.534;2023-07-28T14:43:35;26.30;84.40
33207;DHT22;19565;46.602;11.534;2023-07-28T14:46:03;26.20;83.80
33207;DHT22;19565;46.602;11.534;2023-07-28T14:48:32;26.20;84.60
33207;DHT22;19565;46.602;11.534;2023-07-28T14:51:01;26.30;84.50
33207;DHT22;19565;46.602;11.534;2023-07-28T14:53:35;26.50;84.00
33207;DHT22;19565;46.602;11.534;2023-07-28T14:56:07;26.90;84.40
33207;DHT22;19565;46.602;11.534;2023-07-28T14:58:35;27.10;83.90
33207;DHT22;19565;46.602;11.534;2023-07-28T15:01:03;27.10;83.30
33207;DHT22;19565;46.602;11.534;2023-07-28T15:03:33;27.20;83.90
33207;DHT22;19565;46.602;11.534;2023-07-28T15:06:02;27.10;83.90
33207;DHT22;19565;46.602;11.534;2023-07-28T15:08:32;26.90;83.80
33207;DHT22;19565;46.602;11.534;2023-07-28T15:11:00;26.60;84.20
33207;DHT22;19565;46.602;11.534;2023-07-28T15:13:29;26.40;85.20
33207;DHT22;19565;46.602;11.534;2023-07-28T15:15:57;26.20;86.10
33207;DHT22;19565;46.602;11.534;2023-07-28T15:18:25;26.10;86.80
33207;DHT22;19565;46.602;11.534;2023-07-28T15:20:53;26.00;87.70
33207;DHT22;19565;46.602;11.534;2023-07-28T15:23:23;26.10;87.30
33207;DHT22;19565;46.602;11.534;2023-07-28T15:25:51;26.30;86.80
33207;DHT22;19565;46.602;11.534;2023-07-28T15:28:19;26.50;86.30
33207;DHT22;19565;46.602;11.534;2023-07-28T15:30:49;26.60;85.40
33207;DHT22;19565;46.602;11.534;2023-07-28T15:33:19;26.90;85.10